KBTM/BTM METAR and TAF weather

Enter ICAO airport designator
Station Type Date Time Source
KBTM METAR 2018/07/21 10:53 UTC NOAA

KBTM 211053Z AUTO 00000KT 10SM CLR 11/01 A3015 RMK AO2 SLP151 T01060006


Station Type Date Time Source
KBTM Decoded METAR 2018/07/21 10:53 UTC NOAA

BERT MOONEY AIRPORT, MT, United States (KBTM) 45-58N 112-30W 1688M
Jul 21, 2018 - 06:53 AM EDT / 2018.07.21 1053 UTC
Wind: Calm:0
Visibility: 10 mile(s):0
Sky conditions: clear
Temperature: 51.1 F (10.6 C)
Dew Point: 33.1 F (0.6 C)
Relative Humidity: 49%
Pressure (altimeter): 30.15 in. Hg (1020 hPa)
ob: KBTM 211053Z AUTO 00000KT 10SM CLR 11/01 A3015 RMK AO2 SLP151 T01060006
cycle: 11

Station Type Date Time Source
KBTM TAF 2018/07/21 12:22 UTC NOAA

TAF KBTM 211120Z 2112/2212 14004KT P6SM SKC
FM211900 25010G18KT P6SM SKC
FM212200 30012G22KT P6SM SKC
FM220300 33010KT P6SM SKC


Example: see airport list